createdAt,value
2019-05-28T00:00:36.644Z,91.40
2019-05-28T00:03:04.580Z,91.50
2019-05-28T00:05:32.184Z,91.50
2019-05-28T00:07:59.730Z,91.70
2019-05-28T00:10:27.173Z,91.80
2019-05-28T00:12:54.802Z,91.80
2019-05-28T00:15:22.297Z,91.60
2019-05-28T00:17:49.814Z,91.60
2019-05-28T00:20:17.681Z,91.80
2019-05-28T00:22:45.127Z,91.70
2019-05-28T00:25:12.687Z,91.70
2019-05-28T00:27:40.230Z,91.80
2019-05-28T00:30:19.164Z,91.80
2019-05-28T00:32:37.903Z,91.90
2019-05-28T00:35:06.134Z,92.00
2019-05-28T00:37:33.729Z,92.20
2019-05-28T00:40:02.619Z,92.20
2019-05-28T00:42:31.558Z,92.10
2019-05-28T00:44:59.141Z,92.20
2019-05-28T00:47:26.677Z,92.30
2019-05-28T00:49:54.159Z,92.30
2019-05-28T00:52:21.611Z,92.40
2019-05-28T00:54:49.075Z,92.50
2019-05-28T00:57:17.088Z,92.40
2019-05-28T00:59:46.598Z,92.20
2019-05-28T01:02:14.049Z,92.20
2019-05-28T01:04:41.581Z,92.40
2019-05-28T01:07:09.106Z,92.60
2019-05-28T01:09:36.629Z,92.70
2019-05-28T01:12:04.227Z,92.90
2019-05-28T01:14:31.797Z,92.90
2019-05-28T01:16:59.246Z,92.90
2019-05-28T01:19:26.686Z,92.80
2019-05-28T01:21:55.037Z,92.70
2019-05-28T01:24:22.466Z,92.80
2019-05-28T01:26:49.954Z,92.90
2019-05-28T01:29:17.496Z,92.90
2019-05-28T01:31:45.197Z,92.80
2019-05-28T01:34:12.712Z,93.00
2019-05-28T01:36:40.153Z,93.10
2019-05-28T01:39:07.646Z,93.10
2019-05-28T01:41:35.203Z,93.30
2019-05-28T01:44:02.947Z,93.30
2019-05-28T01:46:30.483Z,93.30
2019-05-28T01:48:57.963Z,93.20
2019-05-28T01:51:25.502Z,93.00
2019-05-28T01:53:53.021Z,92.70
2019-05-28T01:56:20.603Z,92.70
2019-05-28T01:58:48.219Z,92.70
2019-05-28T02:01:15.734Z,92.70
2019-05-28T02:03:43.151Z,92.70
2019-05-28T02:06:10.602Z,92.80
2019-05-28T02:08:38.026Z,93.00
2019-05-28T02:11:05.520Z,93.00
2019-05-28T02:13:33.089Z,92.90
2019-05-28T02:16:00.582Z,92.80
2019-05-28T02:18:28.083Z,92.90
2019-05-28T02:20:55.681Z,93.00
2019-05-28T02:23:23.160Z,93.10
2019-05-28T02:25:50.605Z,93.10
2019-05-28T02:28:18.168Z,93.20
2019-05-28T02:30:45.594Z,93.20
2019-05-28T02:33:13.102Z,93.30
2019-05-28T02:35:40.569Z,93.50
2019-05-28T02:38:09.135Z,93.90
2019-05-28T02:40:36.561Z,94.10
2019-05-28T02:43:04.080Z,94.50
2019-05-28T02:45:31.564Z,94.80
2019-05-28T02:47:59.291Z,95.20
2019-05-28T02:50:56.169Z,95.50
2019-05-28T02:53:23.719Z,95.90
2019-05-28T02:55:53.257Z,96.10
2019-05-28T02:58:21.571Z,96.30
2019-05-28T03:00:49.359Z,96.40
2019-05-28T03:03:18.613Z,96.50
2019-05-28T03:05:49.665Z,96.60
2019-05-28T03:08:17.854Z,96.60
2019-05-28T03:11:03.531Z,96.70
2019-05-28T03:13:14.814Z,96.70
2019-05-28T03:15:46.007Z,96.70
2019-05-28T03:18:16.070Z,96.80
2019-05-28T03:20:43.934Z,96.70
2019-05-28T03:23:12.838Z,96.60
2019-05-28T03:25:41.200Z,96.50
2019-05-28T03:28:08.641Z,96.50
2019-05-28T03:30:36.105Z,96.20
2019-05-28T03:33:04.578Z,96.20
2019-05-28T03:35:32.362Z,96.30
2019-05-28T03:38:01.182Z,96.20
2019-05-28T03:40:42.966Z,96.30
2019-05-28T03:43:11.923Z,96.20
2019-05-28T03:45:39.405Z,95.60
2019-05-28T03:48:07.020Z,95.90
2019-05-28T03:50:34.538Z,96.20
2019-05-28T03:53:02.015Z,96.60
2019-05-28T03:55:29.482Z,96.90
2019-05-28T03:57:56.933Z,97.00
2019-05-28T04:00:24.394Z,97.00
2019-05-28T04:02:51.897Z,97.10
2019-05-28T04:05:19.338Z,97.00
2019-05-28T04:07:47.274Z,96.60
2019-05-28T04:10:14.844Z,96.80
2019-05-28T04:12:42.282Z,97.00
2019-05-28T04:15:10.053Z,96.80
2019-05-28T04:17:37.490Z,97.10
2019-05-28T04:20:05.101Z,97.40
2019-05-28T04:22:32.687Z,97.30
2019-05-28T04:25:00.210Z,97.30
2019-05-28T04:27:27.702Z,97.10
2019-05-28T04:29:55.158Z,97.20
2019-05-28T04:32:37.264Z,97.20
2019-05-28T04:34:51.971Z,97.00
2019-05-28T04:37:19.418Z,96.90
2019-05-28T04:39:46.879Z,96.90
2019-05-28T04:42:14.516Z,97.20
2019-05-28T04:44:42.019Z,96.90
2019-05-28T04:47:09.588Z,96.70
2019-05-28T04:49:37.078Z,96.90
2019-05-28T04:52:04.534Z,96.80
2019-05-28T04:54:31.984Z,96.80
2019-05-28T04:56:59.434Z,96.80
2019-05-28T04:59:26.973Z,96.90
2019-05-28T05:01:54.426Z,97.20
2019-05-28T05:04:21.858Z,97.30
2019-05-28T05:06:49.304Z,97.30
2019-05-28T05:09:16.730Z,97.10
2019-05-28T05:11:44.211Z,96.80
2019-05-28T05:14:11.650Z,96.90
2019-05-28T05:16:39.081Z,97.30
2019-05-28T05:19:06.526Z,97.40
2019-05-28T05:21:35.720Z,97.00
2019-05-28T05:24:03.336Z,97.10
2019-05-28T05:26:31.077Z,96.90
2019-05-28T05:28:59.594Z,96.60
2019-05-28T05:31:27.140Z,96.80
2019-05-28T05:33:54.563Z,96.50
2019-05-28T05:36:21.999Z,95.50
2019-05-28T05:38:49.439Z,96.10
2019-05-28T05:41:16.902Z,96.10
2019-05-28T05:43:44.425Z,95.90
2019-05-28T05:46:11.849Z,95.90
2019-05-28T05:48:40.526Z,96.10
2019-05-28T05:51:08.183Z,95.40
2019-05-28T05:53:35.663Z,95.50
2019-05-28T05:56:03.175Z,95.90
2019-05-28T05:58:30.655Z,95.70
2019-05-28T06:00:58.171Z,95.80
2019-05-28T06:03:39.628Z,95.70
2019-05-28T06:05:55.092Z,95.40
2019-05-28T06:08:22.601Z,95.70
2019-05-28T06:10:50.519Z,95.40
2019-05-28T06:13:18.270Z,95.20
2019-05-28T06:15:45.826Z,95.00
2019-05-28T06:18:13.284Z,94.70
2019-05-28T06:20:40.765Z,94.00
2019-05-28T06:23:08.266Z,92.90
2019-05-28T06:25:35.703Z,92.60
2019-05-28T06:28:03.246Z,92.10
2019-05-28T06:30:30.679Z,91.10
2019-05-28T06:32:58.146Z,90.40
2019-05-28T06:35:25.665Z,90.10
2019-05-28T06:37:53.094Z,90.20
2019-05-28T06:40:20.653Z,90.40
2019-05-28T06:42:48.206Z,90.40
2019-05-28T06:45:15.932Z,91.00
2019-05-28T06:47:45.418Z,91.30
2019-05-28T06:50:13.346Z,92.40
2019-05-28T06:52:40.846Z,92.60
2019-05-28T06:55:08.515Z,92.90
2019-05-28T06:57:37.095Z,93.00
2019-05-28T07:00:05.795Z,92.20
2019-05-28T07:02:33.672Z,92.40
2019-05-28T07:05:01.128Z,92.90
2019-05-28T07:07:28.620Z,92.60
2019-05-28T07:09:56.161Z,91.80
2019-05-28T07:12:23.600Z,91.40
2019-05-28T07:14:51.159Z,91.00
2019-05-28T07:17:18.685Z,89.90
2019-05-28T07:19:46.242Z,90.60
2019-05-28T07:22:13.703Z,90.50
2019-05-28T07:24:41.284Z,86.80
2019-05-28T07:27:08.722Z,84.90
2019-05-28T07:29:36.158Z,85.50
2019-05-28T07:32:03.720Z,86.60
2019-05-28T07:34:31.668Z,85.30
2019-05-28T07:36:59.308Z,85.30
2019-05-28T07:39:26.887Z,81.90
2019-05-28T07:41:54.425Z,82.30
2019-05-28T07:44:21.918Z,83.20
2019-05-28T07:46:49.525Z,83.60
2019-05-28T07:49:17.044Z,83.40
2019-05-28T07:51:44.561Z,82.50
2019-05-28T07:54:12.031Z,77.80
2019-05-28T07:56:39.591Z,78.70
2019-05-28T07:59:07.057Z,78.00
2019-05-28T08:01:34.641Z,78.70
2019-05-28T08:04:02.222Z,77.80
2019-05-28T08:06:29.810Z,77.30
2019-05-28T08:08:57.437Z,77.10
2019-05-28T08:11:25.925Z,77.80
2019-05-28T08:13:56.648Z,78.90
2019-05-28T08:16:24.489Z,80.60
2019-05-28T08:18:52.040Z,80.20
2019-05-28T08:21:19.651Z,81.20
2019-05-28T08:23:47.118Z,82.50
2019-05-28T08:26:14.716Z,84.90
2019-05-28T08:28:42.124Z,87.70
2019-05-28T08:31:15.480Z,90.10
2019-05-28T08:33:39.147Z,91.20
2019-05-28T08:36:06.793Z,91.00
2019-05-28T08:38:34.325Z,91.50
2019-05-28T08:41:01.956Z,92.50
2019-05-28T08:43:29.439Z,93.30
2019-05-28T08:45:56.858Z,93.40
2019-05-28T08:48:24.360Z,93.60
2019-05-28T08:50:51.800Z,93.00
2019-05-28T08:53:19.369Z,93.70
2019-05-28T08:55:46.942Z,93.20
2019-05-28T08:58:14.520Z,92.70
2019-05-28T09:00:42.462Z,92.20
2019-05-28T09:03:10.768Z,92.50
2019-05-28T09:05:39.317Z,93.30
2019-05-28T09:08:06.785Z,93.50
2019-05-28T09:10:34.354Z,91.90
2019-05-28T09:13:03.298Z,90.10
2019-05-28T09:15:30.856Z,90.80
2019-05-28T09:17:58.463Z,90.80
2019-05-28T09:20:25.947Z,90.50
2019-05-28T09:22:54.598Z,89.40
2019-05-28T09:25:22.046Z,89.20
2019-05-28T09:27:49.577Z,89.00
2019-05-28T09:30:17.330Z,87.90
2019-05-28T09:32:44.881Z,87.70
2019-05-28T09:35:13.530Z,84.70
2019-05-28T09:37:41.003Z,85.10
2019-05-28T09:40:09.666Z,82.80
2019-05-28T09:42:37.758Z,83.60
2019-05-28T09:45:21.321Z,83.00
2019-05-28T09:47:36.366Z,82.70
2019-05-28T09:50:03.900Z,81.90
2019-05-28T09:52:32.401Z,82.50
2019-05-28T09:54:59.971Z,83.20
2019-05-28T09:57:27.490Z,81.90
2019-05-28T09:59:55.041Z,80.40
2019-05-28T10:02:22.588Z,79.70
2019-05-28T10:04:50.316Z,80.00
2019-05-28T10:07:18.008Z,80.60
2019-05-28T10:09:45.701Z,74.80
2019-05-28T10:12:13.287Z,74.80
2019-05-28T10:14:44.188Z,75.90
2019-05-28T10:17:10.301Z,74.80
2019-05-28T10:19:37.864Z,71.80
2019-05-28T10:22:05.761Z,72.20
2019-05-28T10:24:33.298Z,73.70
2019-05-28T10:27:00.858Z,73.50
2019-05-28T10:29:28.321Z,70.20
2019-05-28T10:31:55.832Z,71.80
2019-05-28T10:34:23.352Z,71.10
2019-05-28T10:36:50.864Z,70.00
2019-05-28T10:39:18.374Z,63.70
2019-05-28T10:41:45.959Z,64.00
2019-05-28T10:44:13.466Z,65.00
2019-05-28T10:46:41.003Z,61.40
2019-05-28T10:49:08.600Z,60.50
2019-05-28T10:51:36.043Z,58.30
2019-05-28T10:54:03.916Z,59.90
2019-05-28T10:56:31.452Z,55.20
2019-05-28T10:58:58.881Z,57.50
2019-05-28T11:01:26.504Z,57.50
2019-05-28T11:03:54.044Z,59.00
2019-05-28T11:06:21.552Z,55.80
2019-05-28T11:08:49.027Z,56.40
2019-05-28T11:11:16.490Z,56.90
2019-05-28T11:13:53.139Z,56.10
2019-05-28T11:16:13.693Z,54.90
2019-05-28T11:18:41.498Z,58.00
2019-05-28T11:21:28.563Z,57.00
2019-05-28T11:23:56.345Z,57.50
2019-05-28T11:26:23.890Z,56.90
2019-05-28T11:28:51.371Z,55.40
2019-05-28T11:31:18.875Z,54.30
2019-05-28T11:33:46.435Z,54.50
2019-05-28T11:36:13.903Z,56.30
2019-05-28T11:38:41.778Z,54.50
2019-05-28T11:41:09.231Z,53.20
2019-05-28T11:43:36.922Z,54.90
2019-05-28T11:46:04.344Z,56.30
2019-05-28T11:48:31.816Z,57.00
2019-05-28T11:50:59.269Z,51.90
2019-05-28T11:53:26.717Z,50.80
2019-05-28T11:55:54.350Z,53.70
2019-05-28T11:58:21.817Z,53.10
2019-05-28T12:00:49.354Z,51.30
2019-05-28T12:03:16.819Z,52.80
2019-05-28T12:05:44.246Z,53.90
2019-05-28T12:08:11.717Z,52.90
2019-05-28T12:10:39.487Z,52.30
2019-05-28T12:13:10.636Z,49.40
2019-05-28T12:15:36.346Z,50.80
2019-05-28T12:18:04.044Z,50.80
2019-05-28T12:20:31.504Z,49.30
2019-05-28T12:23:10.250Z,48.50
2019-05-28T12:25:29.405Z,47.80
2019-05-28T12:27:56.897Z,48.20
2019-05-28T12:30:24.750Z,47.00
2019-05-28T12:32:52.181Z,44.30
2019-05-28T12:35:28.250Z,45.90
2019-05-28T12:37:50.588Z,45.20
2019-05-28T12:40:19.330Z,42.00
2019-05-28T12:42:46.800Z,42.10
2019-05-28T12:45:15.071Z,41.70
2019-05-28T12:47:42.820Z,41.40
2019-05-28T12:50:20.763Z,42.90
2019-05-28T12:52:40.776Z,42.70
2019-05-28T12:55:09.027Z,39.40
2019-05-28T12:57:36.509Z,39.20
2019-05-28T13:00:05.137Z,36.90
2019-05-28T13:02:33.963Z,36.20
2019-05-28T13:05:01.670Z,35.60
2019-05-28T13:07:29.162Z,37.10
2019-05-28T13:09:56.710Z,33.70
2019-05-28T13:12:24.155Z,38.20
2019-05-28T13:14:51.675Z,38.80
2019-05-28T13:17:19.115Z,34.20
2019-05-28T13:19:46.688Z,36.90
2019-05-28T13:22:14.130Z,36.30
2019-05-28T13:24:41.586Z,39.80
2019-05-28T13:27:18.029Z,38.20
2019-05-28T13:29:39.550Z,39.50
2019-05-28T13:32:08.640Z,38.00
2019-05-28T13:34:36.474Z,36.00
2019-05-28T13:37:03.943Z,37.60
2019-05-28T13:39:31.393Z,36.80
2019-05-28T13:41:58.941Z,39.10
2019-05-28T13:44:26.478Z,37.30
2019-05-28T13:46:54.031Z,36.20
2019-05-28T13:49:21.627Z,36.50
2019-05-28T13:51:52.735Z,35.00
2019-05-28T13:54:18.635Z,35.30
2019-05-28T13:56:46.082Z,36.30
2019-05-28T13:59:13.554Z,34.70
2019-05-28T14:01:41.021Z,35.90
2019-05-28T14:04:08.516Z,36.00
2019-05-28T14:06:35.995Z,39.70
2019-05-28T14:09:06.786Z,39.10
2019-05-28T14:11:34.243Z,32.70
2019-05-28T14:14:01.702Z,33.70
2019-05-28T14:16:29.278Z,34.10
2019-05-28T14:18:56.830Z,37.10
2019-05-28T14:21:24.437Z,36.60
2019-05-28T14:23:51.970Z,35.70
2019-05-28T14:26:19.447Z,35.10
2019-05-28T14:28:47.034Z,39.10
2019-05-28T14:31:14.625Z,39.40
2019-05-28T14:33:42.046Z,39.70
2019-05-28T14:36:09.540Z,38.20
2019-05-28T14:38:37.005Z,38.60
2019-05-28T14:41:05.243Z,38.90
2019-05-28T14:43:33.194Z,38.60
2019-05-28T14:46:00.619Z,38.00
2019-05-28T14:48:28.127Z,35.40
2019-05-28T14:50:55.644Z,34.10
2019-05-28T14:53:23.150Z,35.40
2019-05-28T14:55:50.604Z,34.50
2019-05-28T14:58:18.266Z,34.20
2019-05-28T15:00:45.825Z,40.30
2019-05-28T15:03:13.358Z,37.30
2019-05-28T15:05:40.858Z,35.60
2019-05-28T15:08:08.306Z,37.10
2019-05-28T15:10:35.793Z,35.90
2019-05-28T15:13:03.462Z,35.40
2019-05-28T15:15:35.831Z,35.70
2019-05-28T15:18:00.297Z,37.70
2019-05-28T15:20:27.741Z,35.30
2019-05-28T15:22:55.305Z,36.30
2019-05-28T15:25:22.758Z,37.30
2019-05-28T15:27:50.214Z,38.90
2019-05-28T15:30:18.186Z,38.00
2019-05-28T15:32:45.625Z,38.30
2019-05-28T15:35:13.577Z,36.50
2019-05-28T15:37:41.044Z,37.70
2019-05-28T15:40:09.945Z,39.70
2019-05-28T15:42:37.657Z,39.20
2019-05-28T15:45:06.556Z,37.30
2019-05-28T15:47:34.010Z,38.90
2019-05-28T15:50:01.658Z,36.80
2019-05-28T15:52:29.308Z,37.60
2019-05-28T15:54:56.836Z,38.90
2019-05-28T15:57:24.528Z,39.40
2019-05-28T15:59:52.199Z,38.60
2019-05-28T16:02:19.680Z,39.20
2019-05-28T16:04:47.510Z,40.50
2019-05-28T16:07:15.086Z,38.30
2019-05-28T16:09:55.783Z,40.30
2019-05-28T16:12:13.160Z,39.10
2019-05-28T16:14:40.746Z,38.30
2019-05-28T16:17:08.306Z,38.00
2019-05-28T16:19:35.909Z,38.50
2019-05-28T16:22:03.460Z,39.40
2019-05-28T16:24:31.119Z,39.70
2019-05-28T16:26:58.596Z,39.70
2019-05-28T16:29:26.035Z,40.10
2019-05-28T16:31:53.538Z,39.80
2019-05-28T16:34:21.020Z,42.70
2019-05-28T16:36:48.601Z,43.50
2019-05-28T16:39:16.123Z,43.00
2019-05-28T16:41:43.570Z,42.40
2019-05-28T16:44:11.106Z,43.20
2019-05-28T16:46:38.616Z,42.90
2019-05-28T16:49:06.167Z,45.50
2019-05-28T16:51:33.670Z,45.80
2019-05-28T16:54:18.103Z,45.00
2019-05-28T16:56:30.554Z,45.00
2019-05-28T16:58:58.097Z,46.40
2019-05-28T17:01:25.565Z,45.30
2019-05-28T17:03:53.110Z,47.50
2019-05-28T17:06:20.734Z,46.20
2019-05-28T17:08:49.320Z,47.20
2019-05-28T17:11:16.922Z,47.80
2019-05-28T17:13:48.176Z,45.30
2019-05-28T17:16:13.946Z,47.90
2019-05-28T17:18:41.532Z,45.90
2019-05-28T17:21:09.111Z,46.20
2019-05-28T17:23:36.806Z,46.50
2019-05-28T17:26:04.615Z,47.20
2019-05-28T17:28:32.249Z,49.10
2019-05-28T17:30:59.844Z,49.30
2019-05-28T17:33:27.806Z,49.30
2019-05-28T17:35:57.540Z,49.90
2019-05-28T17:38:24.937Z,51.40
2019-05-28T17:40:53.528Z,51.10
2019-05-28T17:43:21.197Z,52.30
2019-05-28T17:45:48.694Z,51.90
2019-05-28T17:48:16.283Z,50.80
2019-05-28T17:50:43.914Z,51.60
2019-05-28T17:53:11.542Z,52.50
2019-05-28T17:55:39.000Z,52.80
2019-05-28T17:58:06.643Z,52.20
2019-05-28T18:00:35.410Z,52.00
2019-05-28T18:03:03.152Z,50.80
2019-05-28T18:05:30.706Z,50.70
2019-05-28T18:07:58.350Z,50.80
2019-05-28T18:10:25.814Z,51.00
2019-05-28T18:12:53.283Z,51.10
2019-05-28T18:15:21.118Z,51.60
2019-05-28T18:17:48.845Z,52.20
2019-05-28T18:20:16.447Z,52.30
2019-05-28T18:22:44.034Z,52.50
2019-05-28T18:25:11.688Z,52.60
2019-05-28T18:27:39.210Z,53.40
2019-05-28T18:30:07.792Z,52.90
2019-05-28T18:32:43.526Z,53.10
2019-05-28T18:35:15.868Z,53.70
2019-05-28T18:37:43.525Z,54.00
2019-05-28T18:40:12.404Z,54.50
2019-05-28T18:42:40.151Z,55.10
2019-05-28T18:45:08.226Z,54.30
2019-05-28T18:47:35.768Z,54.60
2019-05-28T18:50:04.301Z,54.90
2019-05-28T18:52:32.012Z,54.50
2019-05-28T18:54:59.603Z,53.10
2019-05-28T18:57:27.239Z,54.00
2019-05-28T18:59:54.950Z,54.50
2019-05-28T19:02:22.742Z,54.60
2019-05-28T19:04:50.455Z,55.40
2019-05-28T19:07:18.077Z,56.30
2019-05-28T19:09:45.610Z,55.40
2019-05-28T19:12:13.186Z,56.10
2019-05-28T19:14:41.831Z,56.00
2019-05-28T19:17:09.597Z,54.60
2019-05-28T19:19:40.421Z,55.20
2019-05-28T19:22:08.178Z,55.10
2019-05-28T19:24:35.866Z,55.40
2019-05-28T19:27:03.519Z,56.00
2019-05-28T19:29:31.447Z,56.00
2019-05-28T19:37:57.076Z,56.60
2019-05-28T19:40:34.439Z,57.70
2019-05-28T19:43:04.396Z,57.50
2019-05-28T19:45:33.871Z,58.00
2019-05-28T19:48:01.775Z,57.80
2019-05-28T19:50:29.705Z,58.40
2019-05-28T19:53:00.095Z,59.00
2019-05-28T19:55:27.783Z,58.60
2019-05-28T19:57:55.333Z,59.20
2019-05-28T20:00:24.764Z,59.30
2019-05-28T20:02:52.468Z,59.30
2019-05-28T20:05:20.172Z,62.50
2019-05-28T20:07:47.687Z,60.30
2019-05-28T20:10:16.928Z,61.20
2019-05-28T20:12:44.469Z,61.60
2019-05-28T20:15:12.792Z,61.60
2019-05-28T20:17:40.540Z,62.20
2019-05-28T20:20:09.025Z,62.50
2019-05-28T20:22:36.669Z,63.70
2019-05-28T20:25:05.291Z,63.70
2019-05-28T20:27:32.829Z,64.20
2019-05-28T20:30:00.992Z,64.80
2019-05-28T20:32:28.778Z,65.00
2019-05-28T20:34:57.317Z,64.20
2019-05-28T20:37:24.850Z,64.20
2019-05-28T20:40:06.870Z,65.10
2019-05-28T20:42:55.590Z,65.10
2019-05-28T20:45:39.311Z,66.10
2019-05-28T20:48:08.675Z,66.10
2019-05-28T20:50:36.419Z,65.50
2019-05-28T20:53:03.932Z,65.70
2019-05-28T20:55:31.424Z,66.10
2019-05-28T20:57:58.913Z,66.30
2019-05-28T21:00:26.684Z,66.80
2019-05-28T21:02:54.409Z,66.60
2019-05-28T21:05:22.138Z,66.60
2019-05-28T21:07:50.098Z,67.00
2019-05-28T21:10:18.026Z,66.40
2019-05-28T21:12:45.545Z,66.30
2019-05-28T21:15:16.008Z,66.60
2019-05-28T21:17:43.592Z,67.70
2019-05-28T21:20:13.498Z,69.60
2019-05-28T21:22:40.970Z,72.80
2019-05-28T21:25:09.184Z,73.30
2019-05-28T21:27:40.570Z,72.40
2019-05-28T21:30:08.821Z,70.00
2019-05-28T21:32:50.539Z,69.40
2019-05-28T21:35:18.414Z,68.30
2019-05-28T21:37:46.112Z,68.30
2019-05-28T21:40:13.957Z,67.20
2019-05-28T21:42:41.524Z,67.70
2019-05-28T21:45:09.396Z,70.90
2019-05-28T21:47:37.094Z,70.50
2019-05-28T21:50:05.273Z,69.80
2019-05-28T21:52:32.890Z,70.40
2019-05-28T21:55:01.963Z,71.50
2019-05-28T21:57:30.072Z,71.80
2019-05-28T21:59:57.920Z,72.40
2019-05-28T22:02:25.950Z,72.60
2019-05-28T22:04:53.588Z,74.80
2019-05-28T22:07:21.105Z,75.90
2019-05-28T22:09:48.682Z,76.50
2019-05-28T22:12:16.270Z,76.90
2019-05-28T22:14:44.019Z,76.90
2019-05-28T22:17:13.194Z,77.30
2019-05-28T22:19:41.028Z,77.80
2019-05-28T22:22:08.897Z,77.80
2019-05-28T22:24:36.704Z,77.80
2019-05-28T22:27:04.597Z,78.20
2019-05-28T22:29:32.317Z,78.70
2019-05-28T22:32:00.706Z,78.90
2019-05-28T22:34:28.464Z,79.50
2019-05-28T22:36:56.182Z,79.90
2019-05-28T22:39:23.890Z,81.70
2019-05-28T22:41:51.424Z,82.70
2019-05-28T22:44:18.977Z,82.80
2019-05-28T22:46:46.552Z,82.80
2019-05-28T22:49:14.027Z,83.20
2019-05-28T22:51:41.553Z,83.20
2019-05-28T22:54:09.168Z,83.60
2019-05-28T22:56:36.755Z,83.80
2019-05-28T22:59:04.542Z,83.60
2019-05-28T23:01:32.164Z,83.60
2019-05-28T23:04:00.828Z,84.10
2019-05-28T23:06:29.007Z,84.50
2019-05-28T23:08:56.676Z,85.30
2019-05-28T23:11:24.142Z,86.20
2019-05-28T23:13:51.621Z,86.80
2019-05-28T23:16:19.106Z,86.90
2019-05-28T23:18:46.558Z,86.90
2019-05-28T23:21:14.077Z,86.90
2019-05-28T23:23:42.424Z,87.70
2019-05-28T23:26:10.010Z,87.90
2019-05-28T23:28:37.474Z,88.20
2019-05-28T23:31:05.859Z,88.20
2019-05-28T23:33:33.434Z,87.90
2019-05-28T23:36:00.905Z,87.90
2019-05-28T23:38:28.370Z,88.10
2019-05-28T23:40:55.843Z,87.90
2019-05-28T23:43:23.753Z,87.70
2019-05-28T23:45:51.398Z,87.70
2019-05-28T23:48:18.870Z,87.90
2019-05-28T23:50:46.278Z,87.90
2019-05-28T23:53:13.867Z,88.10
2019-05-28T23:55:41.508Z,88.40
2019-05-28T23:58:09.862Z,88.60
